sensor_id;sensor_type;location;lat;lon;timestamp;P1;durP1;ratioP1;P2;durP2;ratioP2
42666;SDS011;28280;49.646;14.130;2023-08-20T00:03:11;9.57;;;6.40;;
42666;SDS011;28280;49.646;14.130;2023-08-20T00:13:33;6.80;;;6.10;;
42666;SDS011;28280;49.646;14.130;2023-08-20T00:23:54;6.50;;;5.75;;
42666;SDS011;28280;49.646;14.130;2023-08-20T00:34:16;6.97;;;6.18;;
42666;SDS011;28280;49.646;14.130;2023-08-20T00:44:38;7.47;;;5.90;;
42666;SDS011;28280;49.646;14.130;2023-08-20T00:54:59;6.38;;;5.75;;
42666;SDS011;28280;49.646;14.130;2023-08-20T01:05:20;7.13;;;5.60;;
42666;SDS011;28280;49.646;14.130;2023-08-20T01:15:41;6.07;;;5.50;;
42666;SDS011;28280;49.646;14.130;2023-08-20T01:36:32;7.63;;;6.07;;
42666;SDS011;28280;49.646;14.130;2023-08-20T01:46:53;8.43;;;6.57;;
42666;SDS011;28280;49.646;14.130;2023-08-20T01:57:15;6.57;;;5.93;;
42666;SDS011;28280;49.646;14.130;2023-08-20T02:07:36;6.80;;;5.93;;
42666;SDS011;28280;49.646;14.130;2023-08-20T02:17:57;6.35;;;5.72;;
42666;SDS011;28280;49.646;14.130;2023-08-20T02:28:19;5.28;;;4.78;;
42666;SDS011;28280;49.646;14.130;2023-08-20T02:38:41;5.57;;;5.07;;
42666;SDS011;28280;49.646;14.130;2023-08-20T02:49:02;5.50;;;4.97;;
42666;SDS011;28280;49.646;14.130;2023-08-20T02:59:24;6.10;;;5.28;;
42666;SDS011;28280;49.646;14.130;2023-08-20T03:09:45;5.78;;;5.18;;
42666;SDS011;28280;49.646;14.130;2023-08-20T03:20:07;6.50;;;5.85;;
42666;SDS011;28280;49.646;14.130;2023-08-20T03:30:29;6.47;;;5.65;;
42666;SDS011;28280;49.646;14.130;2023-08-20T03:40:52;6.53;;;5.68;;
42666;SDS011;28280;49.646;14.130;2023-08-20T04:01:37;5.32;;;4.80;;
42666;SDS011;28280;49.646;14.130;2023-08-20T04:11:59;6.10;;;5.50;;
42666;SDS011;28280;49.646;14.130;2023-08-20T04:22:20;5.60;;;5.10;;
42666;SDS011;28280;49.646;14.130;2023-08-20T04:32:42;6.60;;;5.28;;
42666;SDS011;28280;49.646;14.130;2023-08-20T04:43:04;6.07;;;5.38;;
42666;SDS011;28280;49.646;14.130;2023-08-20T04:53:26;5.60;;;5.10;;
42666;SDS011;28280;49.646;14.130;2023-08-20T05:03:48;6.63;;;5.93;;
42666;SDS011;28280;49.646;14.130;2023-08-20T05:14:10;5.80;;;5.20;;
42666;SDS011;28280;49.646;14.130;2023-08-20T05:24:31;5.80;;;5.20;;
42666;SDS011;28280;49.646;14.130;2023-08-20T05:34:52;6.07;;;5.47;;
42666;SDS011;28280;49.646;14.130;2023-08-20T05:45:15;6.63;;;5.88;;
42666;SDS011;28280;49.646;14.130;2023-08-20T05:55:37;6.15;;;5.55;;
42666;SDS011;28280;49.646;14.130;2023-08-20T06:05:59;5.95;;;5.35;;
42666;SDS011;28280;49.646;14.130;2023-08-20T06:16:25;6.40;;;5.70;;
42666;SDS011;28280;49.646;14.130;2023-08-20T06:26:46;6.80;;;6.07;;
42666;SDS011;28280;49.646;14.130;2023-08-20T06:37:08;7.00;;;5.82;;
42666;SDS011;28280;49.646;14.130;2023-08-20T06:47:29;8.48;;;6.50;;
42666;SDS011;28280;49.646;14.130;2023-08-20T06:57:51;6.80;;;6.00;;
42666;SDS011;28280;49.646;14.130;2023-08-20T07:08:12;8.43;;;6.82;;
42666;SDS011;28280;49.646;14.130;2023-08-20T07:18:33;8.82;;;6.32;;
42666;SDS011;28280;49.646;14.130;2023-08-20T07:28:54;6.82;;;5.40;;
42666;SDS011;28280;49.646;14.130;2023-08-20T07:39:19;10.68;;;6.07;;
42666;SDS011;28280;49.646;14.130;2023-08-20T07:49:40;6.53;;;5.93;;
42666;SDS011;28280;49.646;14.130;2023-08-20T08:00:02;8.27;;;6.38;;
42666;SDS011;28280;49.646;14.130;2023-08-20T08:10:30;7.32;;;6.50;;
42666;SDS011;28280;49.646;14.130;2023-08-20T08:20:52;7.65;;;5.72;;
42666;SDS011;28280;49.646;14.130;2023-08-20T08:31:13;8.77;;;5.78;;
42666;SDS011;28280;49.646;14.130;2023-08-20T08:41:35;6.32;;;5.70;;
42666;SDS011;28280;49.646;14.130;2023-08-20T08:51:57;6.72;;;6.03;;
42666;SDS011;28280;49.646;14.130;2023-08-20T09:02:18;6.00;;;5.38;;
42666;SDS011;28280;49.646;14.130;2023-08-20T09:12:40;6.20;;;5.60;;
42666;SDS011;28280;49.646;14.130;2023-08-20T09:23:01;7.47;;;6.40;;
42666;SDS011;28280;49.646;14.130;2023-08-20T09:33:23;7.40;;;5.70;;
42666;SDS011;28280;49.646;14.130;2023-08-20T09:43:44;6.78;;;6.00;;
42666;SDS011;28280;49.646;14.130;2023-08-20T09:54:19;7.03;;;5.23;;
42666;SDS011;28280;49.646;14.130;2023-08-20T10:04:44;7.53;;;5.28;;
42666;SDS011;28280;49.646;14.130;2023-08-20T10:15:08;7.07;;;4.57;;
42666;SDS011;28280;49.646;14.130;2023-08-20T10:25:31;5.28;;;4.78;;
42666;SDS011;28280;49.646;14.130;2023-08-20T10:35:52;7.25;;;4.95;;
42666;SDS011;28280;49.646;14.130;2023-08-20T10:46:17;6.80;;;4.25;;
42666;SDS011;28280;49.646;14.130;2023-08-20T11:07:05;6.40;;;4.70;;
42666;SDS011;28280;49.646;14.130;2023-08-20T11:17:26;6.20;;;4.85;;
42666;SDS011;28280;49.646;14.130;2023-08-20T11:27:47;5.63;;;5.03;;
42666;SDS011;28280;49.646;14.130;2023-08-20T11:38:09;5.93;;;4.80;;
42666;SDS011;28280;49.646;14.130;2023-08-20T11:48:33;5.60;;;4.75;;
42666;SDS011;28280;49.646;14.130;2023-08-20T11:59:01;5.78;;;5.18;;
42666;SDS011;28280;49.646;14.130;2023-08-20T12:09:23;9.25;;;5.43;;
42666;SDS011;28280;49.646;14.130;2023-08-20T12:19:45;6.00;;;4.97;;
42666;SDS011;28280;49.646;14.130;2023-08-20T12:30:07;5.18;;;4.68;;
42666;SDS011;28280;49.646;14.130;2023-08-20T12:40:28;7.07;;;4.80;;
42666;SDS011;28280;49.646;14.130;2023-08-20T12:50:50;5.93;;;5.32;;
42666;SDS011;28280;49.646;14.130;2023-08-20T13:01:11;5.63;;;5.05;;
42666;SDS011;28280;49.646;14.130;2023-08-20T13:11:33;5.80;;;4.40;;
42666;SDS011;28280;49.646;14.130;2023-08-20T13:21:55;7.78;;;5.00;;
42666;SDS011;28280;49.646;14.130;2023-08-20T13:32:16;6.50;;;4.47;;
42666;SDS011;28280;49.646;14.130;2023-08-20T13:42:37;5.85;;;4.85;;
42666;SDS011;28280;49.646;14.130;2023-08-20T13:52:59;5.13;;;4.63;;
42666;SDS011;28280;49.646;14.130;2023-08-20T14:03:21;5.72;;;4.97;;
42666;SDS011;28280;49.646;14.130;2023-08-20T14:13:43;5.00;;;4.60;;
42666;SDS011;28280;49.646;14.130;2023-08-20T14:24:04;6.18;;;5.43;;
42666;SDS011;28280;49.646;14.130;2023-08-20T14:34:25;4.97;;;4.38;;
42666;SDS011;28280;49.646;14.130;2023-08-20T14:44:47;5.47;;;4.97;;
42666;SDS011;28280;49.646;14.130;2023-08-20T14:55:11;9.57;;;5.10;;
42666;SDS011;28280;49.646;14.130;2023-08-20T15:05:32;5.88;;;4.70;;
42666;SDS011;28280;49.646;14.130;2023-08-20T15:15:54;6.05;;;5.28;;
42666;SDS011;28280;49.646;14.130;2023-08-20T15:26:16;6.03;;;4.63;;
42666;SDS011;28280;49.646;14.130;2023-08-20T15:36:37;5.20;;;4.72;;
42666;SDS011;28280;49.646;14.130;2023-08-20T15:46:58;5.68;;;5.05;;
42666;SDS011;28280;49.646;14.130;2023-08-20T15:57:19;5.63;;;4.70;;
42666;SDS011;28280;49.646;14.130;2023-08-20T16:07:41;5.60;;;4.90;;
42666;SDS011;28280;49.646;14.130;2023-08-20T16:18:02;5.32;;;4.82;;
42666;SDS011;28280;49.646;14.130;2023-08-20T16:28:24;6.55;;;5.50;;
42666;SDS011;28280;49.646;14.130;2023-08-20T16:38:45;6.90;;;4.88;;
42666;SDS011;28280;49.646;14.130;2023-08-20T16:49:06;5.78;;;4.97;;
42666;SDS011;28280;49.646;14.130;2023-08-20T16:59:28;5.35;;;4.80;;
42666;SDS011;28280;49.646;14.130;2023-08-20T17:09:49;5.28;;;4.78;;
42666;SDS011;28280;49.646;14.130;2023-08-20T17:20:11;6.03;;;4.97;;
42666;SDS011;28280;49.646;14.130;2023-08-20T17:30:33;5.97;;;4.60;;
42666;SDS011;28280;49.646;14.130;2023-08-20T17:40:54;7.60;;;4.97;;
42666;SDS011;28280;49.646;14.130;2023-08-20T17:51:15;7.85;;;5.65;;
42666;SDS011;28280;49.646;14.130;2023-08-20T18:01:39;5.97;;;5.00;;
42666;SDS011;28280;49.646;14.130;2023-08-20T18:12:01;7.82;;;5.93;;
42666;SDS011;28280;49.646;14.130;2023-08-20T18:22:22;6.22;;;4.95;;
42666;SDS011;28280;49.646;14.130;2023-08-20T18:32:44;6.28;;;5.30;;
42666;SDS011;28280;49.646;14.130;2023-08-20T18:43:06;7.47;;;5.80;;
42666;SDS011;28280;49.646;14.130;2023-08-20T18:53:28;6.63;;;5.37;;
42666;SDS011;28280;49.646;14.130;2023-08-20T19:03:51;7.10;;;5.43;;
42666;SDS011;28280;49.646;14.130;2023-08-20T19:14:14;5.88;;;5.18;;
42666;SDS011;28280;49.646;14.130;2023-08-20T19:24:36;6.55;;;5.72;;
42666;SDS011;28280;49.646;14.130;2023-08-20T19:34:58;7.50;;;5.53;;
42666;SDS011;28280;49.646;14.130;2023-08-20T19:45:20;7.67;;;5.03;;
42666;SDS011;28280;49.646;14.130;2023-08-20T19:55:43;6.23;;;5.13;;
42666;SDS011;28280;49.646;14.130;2023-08-20T20:06:05;5.97;;;5.00;;
42666;SDS011;28280;49.646;14.130;2023-08-20T20:16:27;6.40;;;4.82;;
42666;SDS011;28280;49.646;14.130;2023-08-20T20:26:49;9.25;;;4.68;;
42666;SDS011;28280;49.646;14.130;2023-08-20T20:37:10;5.05;;;4.47;;
42666;SDS011;28280;49.646;14.130;2023-08-20T20:47:31;7.22;;;4.60;;
42666;SDS011;28280;49.646;14.130;2023-08-20T20:57:53;5.20;;;4.60;;
42666;SDS011;28280;49.646;14.130;2023-08-20T21:08:14;4.90;;;4.05;;
42666;SDS011;28280;49.646;14.130;2023-08-20T21:18:35;6.78;;;4.88;;
42666;SDS011;28280;49.646;14.130;2023-08-20T21:28:56;5.28;;;4.15;;
42666;SDS011;28280;49.646;14.130;2023-08-20T21:39:18;5.57;;;4.75;;
42666;SDS011;28280;49.646;14.130;2023-08-20T21:49:39;5.40;;;4.70;;
42666;SDS011;28280;49.646;14.130;2023-08-20T22:00:00;7.28;;;5.38;;
42666;SDS011;28280;49.646;14.130;2023-08-20T22:20:45;5.05;;;4.55;;
42666;SDS011;28280;49.646;14.130;2023-08-20T22:31:07;7.23;;;5.03;;
42666;SDS011;28280;49.646;14.130;2023-08-20T22:41:28;6.10;;;4.97;;
42666;SDS011;28280;49.646;14.130;2023-08-20T22:51:49;5.55;;;4.95;;
42666;SDS011;28280;49.646;14.130;2023-08-20T23:02:11;5.75;;;4.50;;
42666;SDS011;28280;49.646;14.130;2023-08-20T23:12:32;5.03;;;4.53;;
42666;SDS011;28280;49.646;14.130;2023-08-20T23:22:53;5.47;;;4.90;;
42666;SDS011;28280;49.646;14.130;2023-08-20T23:33:14;8.77;;;5.05;;
42666;SDS011;28280;49.646;14.130;2023-08-20T23:43:36;7.07;;;4.50;;
42666;SDS011;28280;49.646;14.130;2023-08-20T23:53:58;6.85;;;4.82;;
